Terminal Aerodrome Forecast
Issued by NWS Wichita, KS

Home | Current Version | Previous Version | Text Only | Print | Product List | Glossary Off
Versions: 1 2 3 4 5 6 7 8 9 10 11 12 13 14 15 16 17 18 19 20 21 22

000
FTUS43 KICT 061939 AAB
TAFICT
TAF AMD
KICT 061939Z 0620/0718 20016G24KT P6SM VCTS BKN040CB BKN080
      TEMPO 0620/0624 VRB20G35KT 3SM +TSRA OVC035CB
     FM070000 24015KT 4SM TSRA BKN035CB OVC100
     FM070200 35013KT 4SM TSRA OVC040CB
     FM070700 02014KT 6SM -SHRA VCTS OVC035CB=

USA.gov is the U.S. government's official web portal to all federal, state and local government web resources and services.